KLGA/LGA METAR and TAF weather

Enter ICAO airport designator
Station Type Date Time Source
KLGA METAR 2019/09/20 19:51 UTC NOAA

KLGA 201951Z 28010KT 10SM BKN250 26/06 A3013


Station Type Date Time Source
KLGA Decoded METAR 2019/09/20 19:51 UTC NOAA

NEW YORK LA GUARDIA AIRPORT , NY, United States (KLGA) 40-47N 73-53W 11M
Sep 20, 2019 - 03:51 PM EDT / 2019.09.20 1951 UTC
Wind: from the W (280 degrees) at 12 MPH (10 KT):0
Visibility: 10 mile(s):0
Sky conditions: mostly cloudy
Temperature: 78 F (26 C)
Dew Point: 42 F (6 C)
Relative Humidity: 27%
Pressure (altimeter): 30.13 in. Hg (1020 hPa)
ob: KLGA 201951Z 28010KT 10SM BKN250 26/06 A3013
cycle: 20

Station Type Date Time Source
KLGA TAF 2019/09/20 19:58 UTC NOAA

TAF
AMD KLGA 201858Z 2019/2124 24007KT P6SM BKN250
FM202100 24009KT P6SM SCT250
FM210100 27007KT P6SM FEW250
FM210900 30004KT P6SM FEW250
FM211700 26004KT P6SM FEW250
FM212100 18007KT P6SM SKC

Example: see airport list